createdAt,value
2023-05-19T00:00:28.812Z,10.20
2023-05-19T00:03:21.959Z,7.90
2023-05-19T00:05:57.360Z,8.70
2023-05-19T00:08:26.580Z,8.80
2023-05-19T00:10:55.170Z,7.60
2023-05-19T00:13:25.889Z,9.40
2023-05-19T00:15:55.136Z,7.60
2023-05-19T00:18:23.459Z,9.10
2023-05-19T00:20:52.484Z,8.50
2023-05-19T00:23:20.702Z,8.00
2023-05-19T00:25:54.145Z,11.80
2023-05-19T00:28:22.244Z,11.10
2023-05-19T00:30:52.011Z,10.40
2023-05-19T00:33:20.157Z,9.60
2023-05-19T00:35:48.416Z,8.20
2023-05-19T00:38:16.608Z,7.10
2023-05-19T00:40:45.488Z,7.90
2023-05-19T00:43:13.672Z,10.30
2023-05-19T00:45:41.909Z,7.10
2023-05-19T00:48:10.264Z,10.80
2023-05-19T00:50:38.743Z,9.70
2023-05-19T00:53:07.809Z,8.50
2023-05-19T00:55:40.601Z,8.60
2023-05-19T00:58:10.329Z,11.60
2023-05-19T01:00:39.910Z,7.30
2023-05-19T01:03:11.526Z,6.20
2023-05-19T01:05:42.334Z,7.40
2023-05-19T01:08:10.901Z,8.50
2023-05-19T01:10:42.075Z,6.60
2023-05-19T01:13:15.950Z,9.20
2023-05-19T01:16:00.288Z,6.90
2023-05-19T01:18:39.887Z,8.20
2023-05-19T01:21:37.366Z,10.50
2023-05-19T01:25:03.267Z,7.70
2023-05-19T01:27:38.307Z,6.30
2023-05-19T01:30:07.020Z,8.30
2023-05-19T01:32:37.225Z,7.70
2023-05-19T01:35:07.574Z,8.10
2023-05-19T01:37:37.956Z,7.60
2023-05-19T01:40:08.123Z,8.20
2023-05-19T01:42:40.134Z,9.00
2023-05-19T01:45:11.663Z,6.60
2023-05-19T01:47:44.223Z,9.70
2023-05-19T01:50:12.700Z,8.60
2023-05-19T01:52:41.103Z,8.50
2023-05-19T01:55:09.800Z,7.50
2023-05-19T01:58:07.462Z,9.60
2023-05-19T02:00:56.793Z,11.60
2023-05-19T02:03:41.587Z,7.70
2023-05-19T02:06:38.227Z,6.50
2023-05-19T02:09:15.289Z,6.70
2023-05-19T02:12:16.741Z,8.10
2023-05-19T02:15:09.844Z,6.80
2023-05-19T02:17:50.994Z,6.70
2023-05-19T02:20:24.775Z,8.80
2023-05-19T02:22:52.981Z,9.30
2023-05-19T02:25:28.712Z,9.70
2023-05-19T02:27:58.815Z,7.90
2023-05-19T02:30:26.969Z,11.40
2023-05-19T02:32:57.789Z,11.70
2023-05-19T02:35:26.113Z,6.90
2023-05-19T02:38:03.385Z,9.10
2023-05-19T02:40:31.783Z,8.20
2023-05-19T02:43:00.319Z,7.40
2023-05-19T02:45:36.502Z,12.30
2023-05-19T02:48:05.137Z,8.20
2023-05-19T02:50:33.440Z,7.60
2023-05-19T02:53:13.329Z,9.50
2023-05-19T02:55:42.566Z,8.80
2023-05-19T02:58:13.194Z,10.10
2023-05-19T03:00:45.943Z,6.90
2023-05-19T03:03:15.087Z,8.30
2023-05-19T03:05:46.378Z,7.70
2023-05-19T03:08:14.794Z,8.10
2023-05-19T03:10:43.009Z,9.40
2023-05-19T03:13:13.810Z,8.40
2023-05-19T03:15:46.277Z,8.10
2023-05-19T03:18:16.958Z,10.70
2023-05-19T03:20:48.721Z,6.50
2023-05-19T03:23:16.849Z,8.20
2023-05-19T03:25:44.921Z,7.40
2023-05-19T03:28:13.566Z,10.60
2023-05-19T03:30:42.401Z,8.90
2023-05-19T03:33:17.980Z,10.30
2023-05-19T03:35:46.599Z,10.50
2023-05-19T03:38:15.900Z,8.80
2023-05-19T03:40:51.162Z,10.20
2023-05-19T03:43:19.614Z,8.80
2023-05-19T03:45:52.002Z,12.40
2023-05-19T03:48:41.349Z,8.20
2023-05-19T03:51:24.833Z,8.40
2023-05-19T03:53:55.930Z,8.60
2023-05-19T03:56:26.600Z,8.80
2023-05-19T03:58:57.675Z,8.00
2023-05-19T04:01:37.457Z,7.90
2023-05-19T04:04:08.332Z,10.70
2023-05-19T04:06:39.988Z,10.60
2023-05-19T04:09:16.209Z,7.80
2023-05-19T04:11:44.420Z,8.30
2023-05-19T04:14:17.137Z,9.10
2023-05-19T04:16:59.018Z,7.70
2023-05-19T04:19:38.013Z,10.10
2023-05-19T04:22:06.289Z,8.20
2023-05-19T04:24:46.247Z,9.20
2023-05-19T04:27:16.108Z,7.70
2023-05-19T04:29:46.221Z,8.10
2023-05-19T04:32:17.849Z,8.20
2023-05-19T04:34:47.399Z,8.50
2023-05-19T04:37:21.357Z,15.50
2023-05-19T04:39:53.056Z,9.00
2023-05-19T04:42:22.232Z,7.10
2023-05-19T04:44:51.985Z,6.30
2023-05-19T04:51:05.161Z,9.50
2023-05-19T04:53:42.253Z,9.10
2023-05-19T04:56:15.548Z,7.50
2023-05-19T04:58:53.796Z,9.20
2023-05-19T05:01:27.787Z,7.80
2023-05-19T05:04:04.467Z,7.60
2023-05-19T05:06:38.497Z,8.90
2023-05-19T05:09:07.039Z,7.30
2023-05-19T05:11:35.952Z,10.60
2023-05-19T05:14:04.661Z,10.20
2023-05-19T05:16:37.423Z,10.30
2023-05-19T05:19:14.560Z,9.20
2023-05-19T05:21:57.651Z,10.00
2023-05-19T05:24:29.589Z,8.90
2023-05-19T05:29:29.803Z,6.50
2023-05-19T05:31:58.028Z,10.80
2023-05-19T05:37:00.170Z,8.00
2023-05-19T05:39:38.134Z,7.00
2023-05-19T05:42:09.145Z,6.40
2023-05-19T05:48:23.153Z,8.30
2023-05-19T05:51:06.059Z,9.20
2023-05-19T05:53:56.623Z,6.10
2023-05-19T05:56:36.171Z,8.80
2023-05-19T05:59:07.155Z,16.80
2023-05-19T06:01:43.606Z,11.00
2023-05-19T06:04:14.888Z,10.40
2023-05-19T06:06:44.542Z,10.90
2023-05-19T06:09:15.578Z,8.00
2023-05-19T06:11:51.584Z,8.00
2023-05-19T06:14:58.894Z,7.10
2023-05-19T06:35:11.245Z,8.00
2023-05-19T06:46:20.501Z,6.10
2023-05-19T06:48:53.993Z,8.00
2023-05-19T07:02:04.919Z,11.30
2023-05-19T07:05:08.412Z,9.20
2023-05-19T07:07:38.635Z,9.70
2023-05-19T07:10:50.983Z,6.70
2023-05-19T07:17:15.819Z,7.00
2023-05-19T07:20:24.177Z,7.70
2023-05-19T07:30:08.417Z,7.70
2023-05-19T07:33:02.745Z,7.60
2023-05-19T07:38:23.543Z,8.10
2023-05-19T07:39:56.442Z,8.10
2023-05-19T07:42:33.583Z,9.10
2023-05-19T07:46:20.976Z,7.90
2023-05-19T07:49:38.010Z,9.60
2023-05-19T07:56:46.142Z,11.80
2023-05-19T08:02:28.646Z,8.10
2023-05-19T08:05:21.877Z,6.40
2023-05-19T08:07:59.990Z,7.00
2023-05-19T08:20:55.314Z,7.90
2023-05-19T08:23:41.590Z,10.40
2023-05-19T08:26:10.375Z,11.60
2023-05-19T08:28:43.880Z,7.20
2023-05-19T08:31:22.674Z,7.30
2023-05-19T08:33:51.359Z,9.40
2023-05-19T08:36:19.671Z,7.30
2023-05-19T08:39:08.424Z,6.40
2023-05-19T08:41:36.848Z,6.70
2023-05-19T08:44:07.961Z,7.20
2023-05-19T08:46:48.646Z,7.80
2023-05-19T08:49:25.566Z,6.80
2023-05-19T08:52:33.652Z,9.00
2023-05-19T08:55:44.760Z,8.80
2023-05-19T09:01:20.866Z,7.20
2023-05-19T09:07:19.682Z,6.50
2023-05-19T09:14:33.150Z,9.70
2023-05-19T09:17:39.724Z,6.60
2023-05-19T09:20:26.743Z,9.00
2023-05-19T09:25:35.237Z,9.60
2023-05-19T09:29:16.032Z,7.40
2023-05-19T09:29:48.576Z,9.00
2023-05-19T09:32:40.940Z,11.50
2023-05-19T09:36:15.783Z,9.80
2023-05-19T09:40:47.118Z,8.00
2023-05-19T09:43:21.843Z,7.70
2023-05-19T09:50:00.511Z,8.20
2023-05-19T09:53:49.756Z,8.70
2023-05-19T09:59:33.494Z,8.60
2023-05-19T10:07:25.334Z,11.60
2023-05-19T10:09:59.219Z,10.10
2023-05-19T10:17:11.904Z,9.60
2023-05-19T10:20:44.086Z,10.40
2023-05-19T10:23:35.722Z,7.80
2023-05-19T10:26:43.451Z,6.60
2023-05-19T10:29:27.509Z,6.80
2023-05-19T10:29:33.752Z,7.00
2023-05-19T10:32:35.213Z,10.70
2023-05-19T10:35:27.205Z,9.20
2023-05-19T10:38:26.109Z,7.10
2023-05-19T10:41:29.642Z,6.40
2023-05-19T10:44:28.196Z,8.60
2023-05-19T10:47:19.747Z,9.50
2023-05-19T10:50:20.469Z,7.80
2023-05-19T10:53:29.910Z,8.60
2023-05-19T10:56:20.859Z,9.50
2023-05-19T11:03:07.547Z,9.40
2023-05-19T11:12:52.402Z,7.90
2023-05-19T11:15:29.272Z,10.20
2023-05-19T11:18:01.855Z,9.50
2023-05-19T11:21:06.696Z,7.60
2023-05-19T11:33:05.302Z,12.00
2023-05-19T11:47:07.468Z,9.20
2023-05-19T11:53:20.804Z,7.90
2023-05-19T12:00:50.549Z,9.10
2023-05-19T12:04:37.273Z,11.30
2023-05-19T12:14:04.388Z,10.20
2023-05-19T12:32:21.642Z,13.90
2023-05-19T12:39:05.521Z,8.00
2023-05-19T12:43:10.722Z,9.90
2023-05-19T12:45:16.991Z,11.00
2023-05-19T12:48:02.528Z,10.30
2023-05-19T12:50:41.262Z,10.50
2023-05-19T12:54:16.754Z,10.20
2023-05-19T12:56:58.896Z,7.50
2023-05-19T12:59:38.372Z,10.40
2023-05-19T13:02:12.050Z,7.10
2023-05-19T13:08:26.067Z,10.60
2023-05-19T13:11:39.031Z,12.30
2023-05-19T13:20:34.538Z,9.20
2023-05-19T13:24:11.529Z,13.20
2023-05-19T13:28:41.245Z,7.50
2023-05-19T13:31:27.322Z,10.30
2023-05-19T13:37:38.090Z,8.20
2023-05-19T13:40:51.049Z,7.70
2023-05-19T13:46:56.546Z,6.80
2023-05-19T13:53:46.160Z,12.60
2023-05-19T13:56:14.406Z,10.40
2023-05-19T13:58:42.729Z,7.20
2023-05-19T14:01:13.173Z,6.90
2023-05-19T14:03:45.075Z,8.10
2023-05-19T14:06:17.249Z,8.20
2023-05-19T14:08:45.652Z,11.40
2023-05-19T14:11:40.605Z,9.20
2023-05-19T14:14:11.535Z,12.00
2023-05-19T14:16:45.388Z,11.20
2023-05-19T14:19:37.353Z,16.80
2023-05-19T14:25:18.719Z,18.70
2023-05-19T14:26:13.451Z,19.80
2023-05-19T14:28:01.301Z,24.30
2023-05-19T14:30:34.361Z,26.40
2023-05-19T14:33:13.413Z,33.30
2023-05-19T14:35:59.519Z,23.60
2023-05-19T14:38:29.384Z,20.80
2023-05-19T14:41:13.587Z,18.20
2023-05-19T14:43:47.023Z,26.60
2023-05-19T14:46:22.670Z,33.00
2023-05-19T14:49:01.022Z,31.60
2023-05-19T14:51:31.791Z,34.50
2023-05-19T14:54:01.548Z,19.80
2023-05-19T14:56:38.496Z,23.90
2023-05-19T14:59:15.772Z,31.40
2023-05-19T15:15:11.654Z,13.10
2023-05-19T15:17:58.230Z,9.40
2023-05-19T15:24:05.248Z,9.30
2023-05-19T15:26:41.682Z,10.90
2023-05-19T15:29:33.870Z,9.60
2023-05-19T15:32:08.143Z,10.80
2023-05-19T15:34:38.967Z,11.90
2023-05-19T15:37:09.980Z,11.70
2023-05-19T15:39:41.226Z,10.40
2023-05-19T15:42:13.936Z,13.60
2023-05-19T15:44:50.306Z,11.00
2023-05-19T15:47:24.565Z,11.60
2023-05-19T15:50:12.899Z,16.30
2023-05-19T16:00:08.730Z,12.10
2023-05-19T16:02:45.499Z,13.50
2023-05-19T16:05:16.780Z,13.40
2023-05-19T16:07:45.277Z,14.30
2023-05-19T16:10:15.945Z,13.10
2023-05-19T16:12:44.131Z,14.90
2023-05-19T16:15:19.993Z,21.80
2023-05-19T16:17:53.912Z,15.80
2023-05-19T16:20:29.382Z,19.20
2023-05-19T16:22:57.630Z,15.00
2023-05-19T16:25:25.779Z,13.10
2023-05-19T16:27:54.072Z,19.40
2023-05-19T16:30:23.178Z,21.10
2023-05-19T16:32:53.270Z,18.60
2023-05-19T16:35:27.852Z,14.20
2023-05-19T16:40:24.290Z,15.80
2023-05-19T16:42:56.126Z,17.70
2023-05-19T16:45:27.629Z,15.40
2023-05-19T16:47:55.978Z,10.80
2023-05-19T16:50:24.346Z,15.10
2023-05-19T16:52:52.794Z,11.80
2023-05-19T16:55:22.755Z,24.00
2023-05-19T16:58:00.779Z,16.10
2023-05-19T17:00:45.386Z,15.50
2023-05-19T17:03:38.949Z,15.50
2023-05-19T17:06:22.262Z,12.00
2023-05-19T17:09:05.365Z,13.20
2023-05-19T17:11:49.313Z,16.00
2023-05-19T17:14:44.940Z,15.70
2023-05-19T17:18:04.727Z,17.50
2023-05-19T17:24:16.532Z,21.60
2023-05-19T17:31:44.239Z,23.20
2023-05-19T17:34:34.931Z,19.10
2023-05-19T17:40:37.011Z,29.90
2023-05-19T17:43:08.401Z,18.70
2023-05-19T17:45:53.495Z,11.00
2023-05-19T17:48:25.934Z,13.40
2023-05-19T17:51:11.161Z,12.70
2023-05-19T17:53:46.721Z,13.00
2023-05-19T17:56:18.055Z,8.80
2023-05-19T18:01:27.516Z,8.20
2023-05-19T18:03:59.345Z,10.50
2023-05-19T18:06:51.743Z,9.10
2023-05-19T18:09:23.344Z,9.60
2023-05-19T18:11:55.265Z,12.70
2023-05-19T18:14:29.624Z,11.00
2023-05-19T18:17:06.507Z,9.90
2023-05-19T18:19:37.787Z,10.00
2023-05-19T18:22:07.579Z,11.30
2023-05-19T18:24:43.400Z,12.20
2023-05-19T18:27:19.061Z,12.00
2023-05-19T18:29:47.444Z,9.50
2023-05-19T18:32:18.258Z,10.90
2023-05-19T18:34:47.226Z,11.10
2023-05-19T18:37:15.424Z,11.00
2023-05-19T18:39:43.676Z,12.20
2023-05-19T18:42:11.832Z,13.40
2023-05-19T18:44:40.130Z,12.60
2023-05-19T18:47:10.532Z,12.20
2023-05-19T18:49:38.985Z,15.90
2023-05-19T18:52:07.429Z,12.20
2023-05-19T18:55:09.375Z,14.80
2023-05-19T18:58:05.060Z,13.00
2023-05-19T19:00:52.677Z,12.50
2023-05-19T19:06:31.893Z,15.10
2023-05-19T19:09:10.377Z,15.20
2023-05-19T19:15:16.463Z,14.90
2023-05-19T19:17:54.954Z,12.60
2023-05-19T19:21:01.548Z,12.20
2023-05-19T19:23:34.499Z,14.00
2023-05-19T19:26:07.593Z,15.30
2023-05-19T19:28:50.033Z,13.70
2023-05-19T19:31:27.959Z,15.40
2023-05-19T19:35:00.075Z,17.70
2023-05-19T19:41:39.475Z,14.40
2023-05-19T19:44:08.632Z,13.20
2023-05-19T19:47:14.637Z,14.90
2023-05-19T19:50:07.456Z,15.80
2023-05-19T19:52:55.500Z,15.90
2023-05-19T19:56:07.399Z,18.90
2023-05-19T19:59:29.404Z,14.10
2023-05-19T20:02:04.212Z,16.10
2023-05-19T20:07:42.324Z,19.70
2023-05-19T20:10:43.002Z,15.70
2023-05-19T20:13:40.067Z,18.60
2023-05-19T20:16:45.962Z,18.10
2023-05-19T20:19:56.416Z,17.60
2023-05-19T20:22:45.893Z,18.20
2023-05-19T20:26:03.034Z,17.60
2023-05-19T20:28:45.237Z,18.40
2023-05-19T20:31:15.368Z,14.30
2023-05-19T20:34:31.501Z,15.20
2023-05-19T20:37:01.071Z,17.10
2023-05-19T20:39:31.196Z,16.80
2023-05-19T20:42:22.905Z,20.00
2023-05-19T20:45:11.789Z,17.10
2023-05-19T20:48:12.635Z,16.70
2023-05-19T20:51:09.973Z,17.60
2023-05-19T21:05:58.706Z,22.10
2023-05-19T21:09:15.311Z,18.90
2023-05-19T21:16:23.366Z,19.30
2023-05-19T21:31:44.885Z,17.40
2023-05-19T21:34:25.573Z,18.20
2023-05-19T22:34:43.930Z,23.40
2023-05-19T22:38:15.913Z,16.50
2023-05-19T22:41:25.817Z,19.70
2023-05-19T22:44:15.488Z,17.70
2023-05-19T22:46:50.092Z,19.60
2023-05-19T22:49:23.434Z,19.50
2023-05-19T22:51:54.208Z,20.80
2023-05-19T22:54:22.914Z,18.60
2023-05-19T22:57:05.745Z,18.30
2023-05-19T23:03:29.441Z,17.00
2023-05-19T23:05:57.904Z,16.00
2023-05-19T23:11:58.631Z,18.30
2023-05-19T23:14:33.752Z,18.70
2023-05-19T23:17:25.405Z,16.00
2023-05-19T23:20:06.601Z,19.20
2023-05-19T23:22:43.293Z,17.20
2023-05-19T23:25:49.408Z,16.60
2023-05-19T23:29:26.558Z,18.50
2023-05-19T23:39:04.738Z,17.50
2023-05-19T23:44:10.891Z,19.90
2023-05-19T23:47:23.679Z,19.90
2023-05-19T23:50:33.449Z,16.30
2023-05-19T23:53:43.736Z,19.10
2023-05-19T23:57:49.176Z,17.70
